createdAt,value
2022-10-22T00:00:08.470Z,99.99
2022-10-22T00:01:08.477Z,99.99
2022-10-22T00:02:08.450Z,99.99
2022-10-22T00:03:08.499Z,99.99
2022-10-22T00:04:08.435Z,99.99
2022-10-22T00:05:08.434Z,99.99
2022-10-22T00:06:08.438Z,99.99
2022-10-22T00:07:08.422Z,99.99
2022-10-22T00:08:08.413Z,99.99
2022-10-22T00:09:08.457Z,99.99
2022-10-22T00:10:08.397Z,99.99
2022-10-22T00:11:08.374Z,99.99
2022-10-22T00:12:08.373Z,99.99
2022-10-22T00:13:08.401Z,99.99
2022-10-22T00:14:08.347Z,99.99
2022-10-22T00:15:08.357Z,99.99
2022-10-22T00:16:08.341Z,99.99
2022-10-22T00:17:11.631Z,99.99
2022-10-22T00:18:08.325Z,99.99
2022-10-22T00:19:08.347Z,99.99
2022-10-22T00:20:08.318Z,99.99
2022-10-22T00:21:08.307Z,99.99
2022-10-22T00:22:08.297Z,99.99
2022-10-22T00:23:08.311Z,99.99
2022-10-22T00:24:08.307Z,99.99
2022-10-22T00:25:08.284Z,99.99
2022-10-22T00:26:08.273Z,99.99
2022-10-22T00:27:08.289Z,99.99
2022-10-22T00:28:08.253Z,99.99
2022-10-22T00:29:08.253Z,99.99
2022-10-22T00:30:08.245Z,99.99
2022-10-22T00:31:09.267Z,99.99
2022-10-22T00:32:08.226Z,99.99
2022-10-22T00:33:08.222Z,99.99
2022-10-22T00:34:08.214Z,99.99
2022-10-22T00:35:08.210Z,99.99
2022-10-22T00:36:08.226Z,99.99
2022-10-22T00:37:08.189Z,99.99
2022-10-22T00:38:08.196Z,99.99
2022-10-22T00:39:08.181Z,99.99
2022-10-22T00:40:08.185Z,99.99
2022-10-22T00:41:08.161Z,99.99
2022-10-22T00:42:08.137Z,99.99
2022-10-22T00:43:08.146Z,99.99
2022-10-22T00:44:08.141Z,99.99
2022-10-22T00:45:08.137Z,99.99
2022-10-22T00:46:08.134Z,99.99
2022-10-22T00:47:08.121Z,99.99
2022-10-22T00:48:08.097Z,99.99
2022-10-22T00:49:08.109Z,99.99
2022-10-22T00:50:08.102Z,99.99
2022-10-22T00:51:08.110Z,99.99
2022-10-22T00:52:08.081Z,99.99
2022-10-22T00:53:08.074Z,99.99
2022-10-22T00:54:08.081Z,99.99
2022-10-22T00:55:08.099Z,99.99
2022-10-22T00:56:08.069Z,99.99
2022-10-22T00:57:08.082Z,99.99
2022-10-22T00:58:08.018Z,99.99
2022-10-22T01:00:08.061Z,99.99
2022-10-22T01:01:08.036Z,99.99
2022-10-22T01:02:07.994Z,99.99
2022-10-22T01:03:08.008Z,99.99
2022-10-22T01:04:07.977Z,99.99
2022-10-22T01:05:07.990Z,99.99
2022-10-22T01:06:07.982Z,99.99
2022-10-22T01:07:07.962Z,99.99
2022-10-22T01:08:08.010Z,99.99
2022-10-22T01:09:08.006Z,99.99
2022-10-22T01:10:07.932Z,99.99
2022-10-22T01:11:07.929Z,99.99
2022-10-22T01:12:08.920Z,99.99
2022-10-22T01:13:07.909Z,99.99
2022-10-22T01:14:07.897Z,99.99
2022-10-22T01:15:07.981Z,99.99
2022-10-22T01:16:07.913Z,99.99
2022-10-22T01:17:07.922Z,99.99
2022-10-22T01:18:07.866Z,99.99
2022-10-22T01:19:07.896Z,99.99
2022-10-22T01:20:07.895Z,99.99
2022-10-22T01:21:07.910Z,99.99
2022-10-22T01:22:07.890Z,99.99
2022-10-22T01:23:07.856Z,99.99
2022-10-22T01:24:07.849Z,99.99
2022-10-22T01:25:07.872Z,99.99
2022-10-22T01:26:07.893Z,99.99
2022-10-22T01:27:08.853Z,99.99
2022-10-22T01:28:07.824Z,99.99
2022-10-22T01:29:07.794Z,99.99
2022-10-22T01:30:07.781Z,99.99
2022-10-22T01:31:07.793Z,99.99
2022-10-22T01:32:07.771Z,99.99
2022-10-22T01:33:07.759Z,99.99
2022-10-22T01:34:07.748Z,99.99
2022-10-22T01:35:07.753Z,99.99
2022-10-22T01:36:07.906Z,99.99
2022-10-22T01:37:07.946Z,99.99
2022-10-22T01:38:07.770Z,99.99
2022-10-22T01:39:07.709Z,99.99
2022-10-22T01:40:07.713Z,99.99
2022-10-22T01:41:07.691Z,99.99
2022-10-22T01:42:07.707Z,99.99
2022-10-22T01:43:08.027Z,99.99
2022-10-22T01:44:07.850Z,99.99
2022-10-22T01:45:07.837Z,99.99
2022-10-22T01:46:07.686Z,99.99
2022-10-22T01:47:07.819Z,99.99
2022-10-22T01:48:07.709Z,99.99
2022-10-22T01:49:07.681Z,99.99
2022-10-22T01:50:07.626Z,99.99
2022-10-22T01:51:07.628Z,99.99
2022-10-22T01:52:07.769Z,99.99
2022-10-22T01:53:07.834Z,99.99
2022-10-22T01:54:07.639Z,99.99
2022-10-22T01:55:07.670Z,99.99
2022-10-22T01:56:07.766Z,99.99
2022-10-22T01:57:07.777Z,99.99
2022-10-22T01:58:07.661Z,99.99
2022-10-22T01:59:07.696Z,99.99
2022-10-22T02:00:07.682Z,99.99
2022-10-22T02:01:07.721Z,99.99
2022-10-22T02:02:07.725Z,99.99
2022-10-22T02:03:07.811Z,99.99
2022-10-22T02:04:07.621Z,99.99
2022-10-22T02:05:07.555Z,99.99
2022-10-22T02:06:07.601Z,99.99
2022-10-22T02:07:07.632Z,99.99
2022-10-22T02:08:07.835Z,99.99
2022-10-22T02:09:07.781Z,99.99
2022-10-22T02:10:07.576Z,99.99
2022-10-22T02:11:07.557Z,99.99
2022-10-22T02:12:07.476Z,99.99
2022-10-22T02:13:07.594Z,99.99
2022-10-22T02:14:07.644Z,99.99
2022-10-22T02:15:07.553Z,99.99
2022-10-22T02:16:07.533Z,99.99
2022-10-22T02:17:07.534Z,99.99
2022-10-22T02:18:07.529Z,99.99
2022-10-22T02:19:07.426Z,99.99
2022-10-22T02:20:07.441Z,99.99
2022-10-22T02:22:07.502Z,99.99
2022-10-22T02:23:07.443Z,99.99
2022-10-22T02:24:07.457Z,99.99
2022-10-22T02:25:08.493Z,99.99
2022-10-22T02:26:07.389Z,99.99
2022-10-22T02:27:07.438Z,99.99
2022-10-22T02:28:07.439Z,99.99
2022-10-22T02:29:07.365Z,99.99
2022-10-22T02:30:07.558Z,99.99
2022-10-22T02:31:07.498Z,99.99
2022-10-22T02:32:07.425Z,99.99
2022-10-22T02:33:07.348Z,99.99
2022-10-22T02:34:07.389Z,99.99
2022-10-22T02:35:07.525Z,99.99
2022-10-22T02:36:07.519Z,99.99
2022-10-22T02:37:07.396Z,99.99
2022-10-22T02:38:07.381Z,99.99
2022-10-22T02:39:07.674Z,99.99
2022-10-22T02:40:07.401Z,99.99
2022-10-22T02:41:07.325Z,99.99
2022-10-22T02:42:07.389Z,99.99
2022-10-22T02:43:07.427Z,99.99
2022-10-22T02:44:07.273Z,99.99
2022-10-22T02:45:07.276Z,99.99
2022-10-22T02:46:07.237Z,99.99
2022-10-22T02:47:07.341Z,99.99
2022-10-22T02:48:07.376Z,99.99
2022-10-22T02:49:07.233Z,99.99
2022-10-22T02:50:09.603Z,99.99
2022-10-22T02:51:07.256Z,99.99
2022-10-22T02:52:07.207Z,99.99
2022-10-22T02:53:07.210Z,99.99
2022-10-22T02:54:07.212Z,99.99
2022-10-22T02:55:07.193Z,99.99
2022-10-22T02:56:07.192Z,99.99
2022-10-22T02:57:07.222Z,99.99
2022-10-22T02:58:07.210Z,99.99
2022-10-22T02:59:07.168Z,99.99
2022-10-22T03:00:07.191Z,99.99
2022-10-22T03:01:07.181Z,99.99
2022-10-22T03:02:07.183Z,99.99
2022-10-22T03:03:07.168Z,99.99
2022-10-22T03:04:07.115Z,99.99
2022-10-22T03:05:07.402Z,99.99
2022-10-22T03:06:07.143Z,99.99
2022-10-22T03:07:07.133Z,99.99
2022-10-22T03:08:07.273Z,99.99
2022-10-22T03:09:07.177Z,99.99
2022-10-22T03:10:07.087Z,99.99
2022-10-22T03:11:07.069Z,99.99
2022-10-22T03:12:07.131Z,99.99
2022-10-22T03:13:07.098Z,99.99
2022-10-22T03:14:07.187Z,99.99
2022-10-22T03:15:07.110Z,99.99
2022-10-22T03:16:07.050Z,99.99
2022-10-22T03:17:07.046Z,99.99
2022-10-22T03:18:07.093Z,99.99
2022-10-22T03:19:07.018Z,99.99
2022-10-22T03:20:07.034Z,99.99
2022-10-22T03:21:07.009Z,99.99
2022-10-22T03:22:07.034Z,99.99
2022-10-22T03:23:07.338Z,99.99
2022-10-22T03:24:07.143Z,99.99
2022-10-22T03:25:07.079Z,99.99
2022-10-22T03:26:06.958Z,99.99
2022-10-22T03:27:07.038Z,99.99
2022-10-22T03:28:06.965Z,99.99
2022-10-22T03:29:06.961Z,99.99
2022-10-22T03:30:06.987Z,99.99
2022-10-22T03:31:07.152Z,99.99
2022-10-22T03:32:07.094Z,99.99
2022-10-22T03:33:06.930Z,99.99
2022-10-22T03:34:07.098Z,99.99
2022-10-22T03:35:07.934Z,99.99
2022-10-22T03:36:06.978Z,99.99
2022-10-22T03:37:07.076Z,99.99
2022-10-22T03:38:06.894Z,99.99
2022-10-22T03:39:06.879Z,99.99
2022-10-22T03:40:06.913Z,99.99
2022-10-22T03:41:06.965Z,99.99
2022-10-22T03:42:06.943Z,99.99
2022-10-22T03:43:06.859Z,99.99
2022-10-22T03:44:06.814Z,99.99
2022-10-22T03:45:06.865Z,99.99
2022-10-22T03:46:06.820Z,99.99
2022-10-22T03:47:06.842Z,99.99
2022-10-22T03:48:06.874Z,99.99
2022-10-22T03:49:06.910Z,99.99
2022-10-22T03:50:07.072Z,99.99
2022-10-22T03:51:06.795Z,99.99
2022-10-22T03:52:06.815Z,99.99
2022-10-22T03:53:06.801Z,99.99
2022-10-22T03:54:06.798Z,99.99
2022-10-22T03:55:06.809Z,99.99
2022-10-22T03:56:06.841Z,99.99
2022-10-22T03:57:06.782Z,99.99
2022-10-22T03:58:06.852Z,99.99
2022-10-22T03:59:06.817Z,99.99
2022-10-22T04:00:06.753Z,99.99
2022-10-22T04:01:06.734Z,99.99
2022-10-22T04:02:06.849Z,99.99
2022-10-22T04:03:06.697Z,99.99
2022-10-22T04:04:06.906Z,99.99
2022-10-22T04:05:06.675Z,99.99
2022-10-22T04:06:06.658Z,99.99
2022-10-22T04:07:06.629Z,99.99
2022-10-22T04:08:06.650Z,99.99
2022-10-22T04:09:06.862Z,99.99
2022-10-22T04:10:06.730Z,99.99
2022-10-22T04:11:06.693Z,99.99
2022-10-22T04:12:06.747Z,99.99
2022-10-22T04:13:06.702Z,99.99
2022-10-22T04:14:06.605Z,99.99
2022-10-22T04:15:06.701Z,99.99
2022-10-22T04:16:06.662Z,99.99
2022-10-22T04:17:06.833Z,99.99
2022-10-22T04:18:06.690Z,99.99
2022-10-22T04:19:06.628Z,99.99
2022-10-22T04:20:06.653Z,99.99
2022-10-22T04:21:06.667Z,99.99
2022-10-22T04:22:06.684Z,99.99
2022-10-22T04:23:06.576Z,99.99
2022-10-22T04:24:06.613Z,99.99
2022-10-22T04:25:06.562Z,99.99
2022-10-22T04:26:06.541Z,99.99
2022-10-22T04:27:06.605Z,99.99
2022-10-22T04:28:06.605Z,99.99
2022-10-22T04:29:07.433Z,99.99
2022-10-22T04:30:06.549Z,99.99
2022-10-22T04:31:06.684Z,99.99
2022-10-22T04:32:06.681Z,99.99
2022-10-22T04:33:06.553Z,99.99
2022-10-22T04:34:06.478Z,99.99
2022-10-22T04:35:06.517Z,99.99
2022-10-22T04:36:06.461Z,99.99
2022-10-22T04:37:06.485Z,99.99
2022-10-22T04:38:06.617Z,99.99
2022-10-22T04:39:06.472Z,99.99
2022-10-22T04:40:06.542Z,99.99
2022-10-22T04:41:06.490Z,99.99
2022-10-22T04:42:06.488Z,99.99
2022-10-22T04:43:06.396Z,99.99
2022-10-22T04:44:06.486Z,99.99
2022-10-22T04:45:06.617Z,99.99
2022-10-22T04:46:07.491Z,99.99
2022-10-22T04:47:07.433Z,99.99
2022-10-22T04:48:06.433Z,99.99
2022-10-22T04:49:06.333Z,99.99
2022-10-22T04:50:06.321Z,99.99
2022-10-22T04:51:06.405Z,99.99
2022-10-22T04:52:06.464Z,99.99
2022-10-22T04:53:06.430Z,99.99
2022-10-22T04:54:07.398Z,99.99
2022-10-22T04:55:06.367Z,99.99
2022-10-22T04:56:06.445Z,99.99
2022-10-22T04:57:06.378Z,99.99
2022-10-22T04:58:06.348Z,99.99
2022-10-22T04:59:06.314Z,99.99
2022-10-22T05:00:06.286Z,99.99
2022-10-22T05:01:06.339Z,99.99
2022-10-22T05:02:06.245Z,99.99
2022-10-22T05:03:06.289Z,99.99
2022-10-22T05:04:06.329Z,99.99
2022-10-22T05:05:06.260Z,99.99
2022-10-22T05:06:06.442Z,99.99
2022-10-22T05:07:06.273Z,99.99
2022-10-22T05:08:06.266Z,99.99
2022-10-22T05:09:06.207Z,99.99
2022-10-22T05:10:06.181Z,99.99
2022-10-22T05:11:06.216Z,99.99
2022-10-22T05:12:06.229Z,99.99
2022-10-22T05:13:06.258Z,99.99
2022-10-22T05:14:06.224Z,99.99
2022-10-22T05:15:06.181Z,99.99
2022-10-22T05:16:06.311Z,99.99
2022-10-22T05:17:06.177Z,99.99
2022-10-22T05:18:06.163Z,99.99
2022-10-22T05:19:06.113Z,99.99
2022-10-22T05:20:06.128Z,99.99
2022-10-22T05:21:06.209Z,99.99
2022-10-22T05:22:06.184Z,99.99
2022-10-22T05:23:06.120Z,99.99
2022-10-22T05:24:06.104Z,99.99
2022-10-22T05:25:06.070Z,99.99
2022-10-22T05:26:06.317Z,99.99
2022-10-22T05:27:06.094Z,99.99
2022-10-22T05:28:06.161Z,99.99
2022-10-22T05:29:06.080Z,99.99
2022-10-22T05:30:06.142Z,99.99
2022-10-22T05:31:06.222Z,99.99
2022-10-22T05:32:06.092Z,99.99
2022-10-22T05:33:06.024Z,99.99
2022-10-22T05:34:06.072Z,99.99
2022-10-22T05:35:06.075Z,99.99
2022-10-22T05:36:06.029Z,99.99
2022-10-22T05:37:07.073Z,99.99
2022-10-22T05:38:07.041Z,99.99
2022-10-22T05:39:06.080Z,99.99
2022-10-22T05:40:19.412Z,99.99
2022-10-22T05:41:08.036Z,99.99
2022-10-22T05:42:06.117Z,99.99
2022-10-22T05:43:05.993Z,99.99
2022-10-22T05:44:05.997Z,99.99
2022-10-22T05:45:06.037Z,99.99
2022-10-22T05:46:06.002Z,99.99
2022-10-22T05:47:06.007Z,99.99
2022-10-22T05:48:06.036Z,99.99
2022-10-22T05:49:05.972Z,99.99
2022-10-22T05:50:06.172Z,99.99
2022-10-22T05:51:06.028Z,99.99
2022-10-22T05:52:05.938Z,99.99
2022-10-22T05:53:05.963Z,99.99
2022-10-22T05:54:05.978Z,99.99
2022-10-22T05:55:06.020Z,99.99
2022-10-22T05:56:05.872Z,99.99
2022-10-22T05:57:05.961Z,99.99
2022-10-22T05:58:05.961Z,99.99
2022-10-22T05:59:05.948Z,99.99
2022-10-22T06:00:05.873Z,99.99
2022-10-22T06:01:05.849Z,99.99
2022-10-22T06:02:05.939Z,99.99
2022-10-22T06:03:05.886Z,99.99
2022-10-22T06:04:05.878Z,99.99
2022-10-22T06:05:05.842Z,99.99
2022-10-22T06:06:05.791Z,99.99
2022-10-22T06:07:05.885Z,99.99
2022-10-22T06:08:05.762Z,99.99
2022-10-22T06:09:06.122Z,99.99
2022-10-22T06:10:05.885Z,99.99
2022-10-22T06:11:05.801Z,99.99
2022-10-22T06:12:05.780Z,99.99
2022-10-22T06:13:05.857Z,99.99
2022-10-22T06:14:05.998Z,99.99
2022-10-22T06:15:05.907Z,99.99
2022-10-22T06:16:05.750Z,99.99
2022-10-22T06:17:05.875Z,99.99
2022-10-22T06:18:05.722Z,99.99
2022-10-22T06:19:05.834Z,99.99
2022-10-22T06:21:06.729Z,99.99
2022-10-22T06:22:05.741Z,99.99
2022-10-22T06:23:05.741Z,99.99
2022-10-22T06:24:05.813Z,99.99
2022-10-22T06:25:05.684Z,99.99
2022-10-22T06:26:05.708Z,99.99
2022-10-22T06:27:05.664Z,99.99
2022-10-22T06:28:05.749Z,99.99
2022-10-22T06:29:05.758Z,99.99
2022-10-22T06:30:05.689Z,99.99
2022-10-22T06:31:05.772Z,99.99
2022-10-22T06:32:05.658Z,99.99
2022-10-22T06:33:05.578Z,99.99
2022-10-22T06:34:05.605Z,99.99
2022-10-22T06:35:05.821Z,99.99
2022-10-22T06:36:07.636Z,99.99
2022-10-22T06:37:05.737Z,99.99
2022-10-22T06:38:05.535Z,99.99
2022-10-22T06:39:05.566Z,99.99
2022-10-22T06:40:05.552Z,99.99
2022-10-22T06:41:05.516Z,99.99
2022-10-22T06:42:05.569Z,99.99
2022-10-22T06:43:05.516Z,99.99
2022-10-22T06:44:05.593Z,99.99
2022-10-22T06:45:05.483Z,99.99
2022-10-22T06:46:05.508Z,99.99
2022-10-22T06:47:05.557Z,99.99
2022-10-22T06:48:05.504Z,99.99
2022-10-22T06:49:05.521Z,99.99
2022-10-22T06:50:05.558Z,99.99
2022-10-22T06:51:05.430Z,99.99
2022-10-22T06:52:05.432Z,99.99
2022-10-22T06:53:05.440Z,99.99
2022-10-22T06:54:05.413Z,99.99
2022-10-22T06:55:05.404Z,99.99
2022-10-22T06:56:05.384Z,99.99
2022-10-22T06:57:05.475Z,99.99
2022-10-22T06:58:05.404Z,99.99
2022-10-22T06:59:05.777Z,99.99
2022-10-22T07:00:05.368Z,99.95
2022-10-22T07:01:05.411Z,99.99
2022-10-22T07:02:05.353Z,99.69
2022-10-22T07:03:05.360Z,99.85
2022-10-22T07:04:05.361Z,99.80
2022-10-22T07:05:05.341Z,99.64
2022-10-22T07:06:05.316Z,99.80
2022-10-22T07:07:05.309Z,99.24
2022-10-22T07:08:06.308Z,99.85
2022-10-22T07:09:06.146Z,99.54
2022-10-22T07:10:05.299Z,99.85
2022-10-22T07:11:05.293Z,99.54
2022-10-22T07:12:05.294Z,99.44
2022-10-22T07:13:05.271Z,99.13
2022-10-22T07:14:05.279Z,99.33
2022-10-22T07:15:05.255Z,98.99
2022-10-22T07:16:05.250Z,98.88
2022-10-22T07:17:05.240Z,96.26
2022-10-22T07:18:05.276Z,95.35
2022-10-22T07:19:05.224Z,94.00
2022-10-22T07:20:05.217Z,90.12
2022-10-22T07:21:05.229Z,87.82
2022-10-22T07:22:05.195Z,87.18
2022-10-22T07:23:05.241Z,84.67
2022-10-22T07:24:05.197Z,83.62
2022-10-22T07:25:07.263Z,83.42
2022-10-22T07:26:05.206Z,82.42
2022-10-22T07:27:08.169Z,83.28
2022-10-22T07:28:06.165Z,81.98
2022-10-22T07:29:05.156Z,80.89
2022-10-22T07:30:05.220Z,79.58
2022-10-22T07:31:05.209Z,79.35
2022-10-22T07:32:05.139Z,79.44
2022-10-22T07:33:05.149Z,77.83
2022-10-22T07:34:05.118Z,79.71
2022-10-22T07:35:05.106Z,77.26
2022-10-22T07:36:05.130Z,76.78
2022-10-22T07:37:05.136Z,75.58
2022-10-22T07:38:05.088Z,75.68
2022-10-22T07:39:05.068Z,75.82
2022-10-22T07:40:05.072Z,75.74
2022-10-22T07:41:05.082Z,75.41
2022-10-22T07:42:06.059Z,73.80
2022-10-22T07:43:05.070Z,73.44
2022-10-22T07:44:05.204Z,74.71
2022-10-22T07:45:05.064Z,74.01
2022-10-22T07:46:05.059Z,72.90
2022-10-22T07:47:05.035Z,72.63
2022-10-22T07:48:05.039Z,73.27
2022-10-22T07:49:05.018Z,72.66
2022-10-22T07:50:05.008Z,73.16
2022-10-22T07:51:05.009Z,72.97
2022-10-22T07:52:04.996Z,72.27
2022-10-22T07:53:04.984Z,73.54
2022-10-22T07:54:04.979Z,74.40
2022-10-22T07:55:04.979Z,73.54
2022-10-22T07:56:04.963Z,75.59
2022-10-22T07:57:05.020Z,78.71
2022-10-22T07:58:04.951Z,82.35
2022-10-22T07:59:04.959Z,84.09
2022-10-22T08:00:04.938Z,86.90
2022-10-22T08:01:04.977Z,88.55
2022-10-22T08:02:04.947Z,89.76
2022-10-22T08:03:04.935Z,90.31
2022-10-22T08:04:04.904Z,90.21
2022-10-22T08:05:04.919Z,90.82
2022-10-22T08:06:04.927Z,90.41
2022-10-22T08:07:04.884Z,91.47
2022-10-22T08:08:04.883Z,90.86
2022-10-22T08:09:04.924Z,91.71
2022-10-22T08:10:04.879Z,92.02
2022-10-22T08:11:04.878Z,91.82
2022-10-22T08:12:04.868Z,92.12
2022-10-22T08:13:04.863Z,92.72
2022-10-22T08:14:04.870Z,92.97
2022-10-22T08:15:04.839Z,93.07
2022-10-22T08:16:04.833Z,93.18
2022-10-22T08:17:04.883Z,93.78
2022-10-22T08:18:04.825Z,94.29
2022-10-22T08:19:04.803Z,93.68
2022-10-22T08:20:04.806Z,93.58
2022-10-22T08:21:04.830Z,93.88
2022-10-22T08:22:04.842Z,94.09
2022-10-22T08:23:04.799Z,93.88
2022-10-22T08:24:04.779Z,93.88
2022-10-22T08:25:04.762Z,93.73
2022-10-22T08:26:04.760Z,94.09
2022-10-22T08:27:04.750Z,94.39
2022-10-22T08:28:04.763Z,94.59
2022-10-22T08:29:04.754Z,94.43
2022-10-22T08:30:04.727Z,94.23
2022-10-22T08:31:04.736Z,94.19
2022-10-22T08:32:04.720Z,93.99
2022-10-22T08:33:04.759Z,94.23
2022-10-22T08:34:04.706Z,93.99
2022-10-22T08:35:04.691Z,94.29
2022-10-22T08:36:04.691Z,94.49
2022-10-22T08:37:04.686Z,94.19
2022-10-22T08:38:04.670Z,93.99
2022-10-22T08:39:04.678Z,93.78
2022-10-22T08:40:04.658Z,93.78
2022-10-22T08:41:04.657Z,93.68
2022-10-22T08:42:04.650Z,93.27
2022-10-22T08:43:04.642Z,93.74
2022-10-22T08:44:04.640Z,93.38
2022-10-22T08:45:04.618Z,93.63
2022-10-22T08:46:04.614Z,93.68
2022-10-22T08:47:04.606Z,93.68
2022-10-22T08:48:04.595Z,93.84
2022-10-22T08:49:04.628Z,93.68
2022-10-22T08:50:04.595Z,93.74
2022-10-22T08:51:04.598Z,93.74
2022-10-22T08:52:04.577Z,94.04
2022-10-22T08:53:05.667Z,93.94
2022-10-22T08:54:05.715Z,93.74
2022-10-22T08:55:04.788Z,93.63
2022-10-22T08:56:06.699Z,94.04
2022-10-22T08:57:05.328Z,93.74
2022-10-22T08:58:06.299Z,93.54
2022-10-22T08:59:04.514Z,94.14
2022-10-22T09:00:04.512Z,94.55
2022-10-22T09:01:04.505Z,94.24
2022-10-22T09:02:04.503Z,94.24
2022-10-22T09:03:04.482Z,93.54
2022-10-22T09:04:04.490Z,94.14
2022-10-22T09:05:07.630Z,94.45
2022-10-22T09:06:07.342Z,94.35
2022-10-22T09:07:04.470Z,94.75
2022-10-22T09:08:04.455Z,94.14
2022-10-22T09:09:04.494Z,93.54
2022-10-22T09:10:04.438Z,93.63
2022-10-22T09:11:05.430Z,93.54
2022-10-22T09:12:04.420Z,93.43
2022-10-22T09:13:04.427Z,93.63
2022-10-22T09:14:04.506Z,93.94
2022-10-22T09:15:04.401Z,94.24
2022-10-22T09:16:04.391Z,94.00
2022-10-22T09:17:04.388Z,93.49
2022-10-22T09:18:04.373Z,93.29
2022-10-22T09:19:04.382Z,93.74
2022-10-22T09:20:04.360Z,92.72
2022-10-22T09:21:04.490Z,93.13
2022-10-22T09:22:04.346Z,93.19
2022-10-22T09:23:04.346Z,92.88
2022-10-22T09:24:04.343Z,92.84
2022-10-22T09:25:04.332Z,93.24
2022-10-22T09:26:04.321Z,92.33
2022-10-22T09:27:04.313Z,92.03
2022-10-22T09:28:04.301Z,92.13
2022-10-22T09:29:04.302Z,92.33
2022-10-22T09:30:04.291Z,92.84
2022-10-22T09:31:04.312Z,92.64
2022-10-22T09:32:04.278Z,92.69
2022-10-22T09:33:04.271Z,92.09
2022-10-22T09:34:04.256Z,91.78
2022-10-22T09:35:04.261Z,91.28
2022-10-22T09:36:04.255Z,92.69
2022-10-22T09:37:04.250Z,92.29
2022-10-22T09:38:04.234Z,91.24
2022-10-22T09:39:04.304Z,91.30
2022-10-22T09:40:04.217Z,90.08
2022-10-22T09:41:04.344Z,89.88
2022-10-22T09:42:04.210Z,90.08
2022-10-22T09:43:04.190Z,90.63
2022-10-22T09:44:04.186Z,90.73
2022-10-22T09:45:04.182Z,90.12
2022-10-22T09:46:04.172Z,90.03
2022-10-22T09:47:04.167Z,90.23
2022-10-22T09:48:04.145Z,90.53
2022-10-22T09:49:04.146Z,90.63
2022-10-22T09:50:04.143Z,90.73
2022-10-22T09:51:04.198Z,90.83
2022-10-22T09:52:04.138Z,90.89
2022-10-22T09:53:04.127Z,90.63
2022-10-22T09:54:04.125Z,89.78
2022-10-22T09:55:04.089Z,89.98
2022-10-22T09:56:04.086Z,89.48
2022-10-22T09:57:04.089Z,88.67
2022-10-22T09:58:04.077Z,89.28
2022-10-22T09:59:04.053Z,88.26
2022-10-22T10:00:04.062Z,88.06
2022-10-22T10:01:04.049Z,87.46
2022-10-22T10:02:13.745Z,85.58
2022-10-22T10:03:06.080Z,83.26
2022-10-22T10:04:08.383Z,83.12
2022-10-22T10:05:06.028Z,82.38
2022-10-22T10:06:06.015Z,80.02
2022-10-22T10:07:04.022Z,81.41
2022-10-22T10:08:04.009Z,82.76
2022-10-22T10:09:04.077Z,83.40
2022-10-22T10:10:03.994Z,84.41
2022-10-22T10:11:03.987Z,84.31
2022-10-22T10:12:03.994Z,85.52
2022-10-22T10:13:03.973Z,84.71
2022-10-22T10:14:03.977Z,83.60
2022-10-22T10:15:03.965Z,85.11
2022-10-22T10:16:03.962Z,84.71
2022-10-22T10:17:03.973Z,84.95
2022-10-22T10:18:03.953Z,85.05
2022-10-22T10:19:03.946Z,85.05
2022-10-22T10:20:04.384Z,81.85
2022-10-22T10:21:04.012Z,77.26
2022-10-22T10:22:03.937Z,77.00
2022-10-22T10:23:03.907Z,77.53
2022-10-22T10:24:03.909Z,78.64
2022-10-22T10:25:03.905Z,79.38
2022-10-22T10:26:03.889Z,79.24
2022-10-22T10:27:03.897Z,78.94
2022-10-22T10:28:03.881Z,78.66
2022-10-22T10:29:03.906Z,75.51
2022-10-22T10:30:03.867Z,75.51
2022-10-22T10:31:03.862Z,72.23
2022-10-22T10:32:03.850Z,69.46
2022-10-22T10:33:03.842Z,66.73
2022-10-22T10:34:03.849Z,65.50
2022-10-22T10:35:03.829Z,62.68
2022-10-22T10:36:03.812Z,61.83
2022-10-22T10:37:03.823Z,61.27
2022-10-22T10:38:03.825Z,60.22
2022-10-22T10:39:03.789Z,57.01
2022-10-22T10:40:03.802Z,57.90
2022-10-22T10:41:03.786Z,58.00
2022-10-22T10:42:03.773Z,58.13
2022-10-22T10:43:03.789Z,58.13
2022-10-22T10:44:03.765Z,57.68
2022-10-22T10:45:03.756Z,55.89
2022-10-22T10:46:03.762Z,55.79
2022-10-22T10:47:03.741Z,56.56
2022-10-22T10:48:03.762Z,55.79
2022-10-22T10:49:03.737Z,57.01
2022-10-22T10:50:03.725Z,55.89
2022-10-22T10:51:03.713Z,56.04
2022-10-22T10:52:03.716Z,56.87
2022-10-22T10:53:03.729Z,57.29
2022-10-22T10:54:03.697Z,57.56
2022-10-22T10:55:03.726Z,56.94
2022-10-22T10:56:03.714Z,54.97
2022-10-22T10:57:03.717Z,55.04
2022-10-22T10:58:03.681Z,55.09
2022-10-22T10:59:03.707Z,53.88
2022-10-22T11:00:03.665Z,51.97
2022-10-22T11:01:03.663Z,51.79
2022-10-22T11:02:03.645Z,52.29
2022-10-22T11:03:03.653Z,52.51
2022-10-22T11:04:03.671Z,52.44
2022-10-22T11:05:03.633Z,52.54
2022-10-22T11:06:03.626Z,52.41
2022-10-22T11:07:10.980Z,52.14
2022-10-22T11:08:05.622Z,52.66
2022-10-22T11:09:03.715Z,53.08
2022-10-22T11:10:03.613Z,53.85
2022-10-22T11:11:03.708Z,51.05
2022-10-22T11:12:03.601Z,51.94
2022-10-22T11:13:03.619Z,52.73
2022-10-22T11:14:03.594Z,51.92
2022-10-22T11:15:03.581Z,52.02
2022-10-22T11:16:03.573Z,50.76
2022-10-22T11:17:03.564Z,51.25
2022-10-22T11:18:03.542Z,52.91
2022-10-22T11:19:03.564Z,52.09
2022-10-22T11:20:03.545Z,52.00
2022-10-22T11:21:03.524Z,51.70
2022-10-22T11:22:03.524Z,51.00
2022-10-22T11:23:21.551Z,50.09
2022-10-22T11:24:05.525Z,49.10
2022-10-22T11:25:03.537Z,49.40
2022-10-22T11:26:03.513Z,48.80
2022-10-22T11:27:03.492Z,50.21
2022-10-22T11:28:09.160Z,50.58
2022-10-22T11:29:04.486Z,50.29
2022-10-22T11:30:03.473Z,49.62
2022-10-22T11:31:03.477Z,50.16
2022-10-22T11:32:03.473Z,50.93
2022-10-22T11:33:03.457Z,51.03
2022-10-22T11:34:09.995Z,50.04
2022-10-22T11:35:05.447Z,50.43
2022-10-22T11:36:03.458Z,52.59
2022-10-22T11:37:03.440Z,54.85
2022-10-22T11:38:04.429Z,55.94
2022-10-22T11:39:03.426Z,55.12
2022-10-22T11:40:03.429Z,56.38
2022-10-22T11:41:03.425Z,55.91
2022-10-22T11:42:03.408Z,55.40
2022-10-22T11:43:03.399Z,54.97
2022-10-22T11:44:03.394Z,58.37
2022-10-22T11:45:03.388Z,60.65
2022-10-22T11:46:03.428Z,60.42
2022-10-22T11:47:03.369Z,61.08
2022-10-22T11:48:03.385Z,63.96
2022-10-22T11:49:03.357Z,64.92
2022-10-22T11:50:03.359Z,66.28
2022-10-22T11:51:03.356Z,68.26
2022-10-22T11:52:05.007Z,69.42
2022-10-22T11:53:03.363Z,69.53
2022-10-22T11:54:03.335Z,71.09
2022-10-22T11:55:03.314Z,71.60
2022-10-22T11:56:03.308Z,73.07
2022-10-22T11:57:03.309Z,75.02
2022-10-22T11:58:03.292Z,74.41
2022-10-22T11:59:03.296Z,74.92
2022-10-22T12:00:03.272Z,74.72
2022-10-22T12:01:03.276Z,73.71
2022-10-22T12:02:03.286Z,73.68
2022-10-22T12:03:03.261Z,71.80
2022-10-22T12:04:03.280Z,71.40
2022-10-22T12:05:03.249Z,72.24
2022-10-22T12:06:03.233Z,72.00
2022-10-22T12:07:03.240Z,70.53
2022-10-22T12:08:03.316Z,70.56
2022-10-22T12:09:03.294Z,67.89
2022-10-22T12:10:03.217Z,65.72
2022-10-22T12:11:03.224Z,67.09
2022-10-22T12:12:03.197Z,68.55
2022-10-22T12:13:03.201Z,69.29
2022-10-22T12:14:03.194Z,69.92
2022-10-22T12:15:03.183Z,70.66
2022-10-22T12:16:03.180Z,70.59
2022-10-22T12:17:03.167Z,71.00
2022-10-22T12:18:03.238Z,71.06
2022-10-22T12:19:03.161Z,71.47
2022-10-22T12:20:03.291Z,71.53
2022-10-22T12:21:03.168Z,72.17
2022-10-22T12:22:03.269Z,72.33
2022-10-22T12:23:03.144Z,71.63
2022-10-22T12:24:03.124Z,69.62
2022-10-22T12:25:03.131Z,67.09
2022-10-22T12:26:03.108Z,65.79
2022-10-22T12:27:03.112Z,64.13
2022-10-22T12:28:03.098Z,64.36
2022-10-22T12:29:03.172Z,64.72
2022-10-22T12:30:03.098Z,66.82
2022-10-22T12:31:03.108Z,65.39
2022-10-22T12:32:03.080Z,64.50
2022-10-22T12:33:03.069Z,61.85
2022-10-22T12:34:03.062Z,61.22
2022-10-22T12:35:03.049Z,60.39
2022-10-22T12:36:03.056Z,59.47
2022-10-22T12:37:03.041Z,58.54
2022-10-22T12:38:03.028Z,57.02
2022-10-22T12:39:03.020Z,57.45
2022-10-22T12:40:03.022Z,59.22
2022-10-22T12:41:03.004Z,58.04
2022-10-22T12:42:03.066Z,59.09
2022-10-22T12:43:03.039Z,58.59
2022-10-22T12:44:03.048Z,58.80
2022-10-22T12:45:02.985Z,59.00
2022-10-22T12:46:02.968Z,59.08
2022-10-22T12:47:02.968Z,61.57
2022-10-22T12:48:02.985Z,63.06
2022-10-22T12:49:02.956Z,64.55
2022-10-22T12:50:02.946Z,63.93
2022-10-22T12:51:02.969Z,59.15
2022-10-22T12:52:02.928Z,58.50
2022-10-22T12:53:03.944Z,57.73
2022-10-22T12:54:02.925Z,59.05
2022-10-22T12:55:03.944Z,59.94